createdAt,value
2019-06-01T00:00:37.998Z,26.00
2019-06-01T00:03:06.750Z,25.20
2019-06-01T00:05:35.883Z,25.00
2019-06-01T00:08:04.662Z,24.80
2019-06-01T00:10:33.392Z,26.60
2019-06-01T00:13:02.137Z,27.15
2019-06-01T00:15:30.852Z,27.48
2019-06-01T00:17:59.566Z,26.00
2019-06-01T00:20:28.320Z,25.97
2019-06-01T00:22:57.043Z,24.47
2019-06-01T00:25:25.764Z,24.55
2019-06-01T00:27:54.492Z,24.00
2019-06-01T00:30:26.987Z,24.00
2019-06-01T00:32:53.595Z,23.22
2019-06-01T00:35:22.316Z,23.32
2019-06-01T00:37:51.783Z,24.18
2019-06-01T00:40:20.671Z,24.23
2019-06-01T00:42:50.258Z,22.48
2019-06-01T00:45:19.064Z,23.02
2019-06-01T00:47:48.931Z,23.07
2019-06-01T00:50:17.719Z,22.02
2019-06-01T00:52:47.205Z,20.85
2019-06-01T00:55:16.087Z,21.57
2019-06-01T00:57:45.711Z,23.47
2019-06-01T01:00:14.935Z,23.60
2019-06-01T01:02:44.022Z,22.85
2019-06-01T01:05:20.041Z,23.00
2019-06-01T01:07:48.937Z,22.90
2019-06-01T01:10:17.933Z,22.37
2019-06-01T01:13:06.675Z,22.22
2019-06-01T01:15:36.667Z,21.93
2019-06-01T01:18:08.120Z,21.85
2019-06-01T01:20:37.849Z,21.17
2019-06-01T01:23:08.294Z,21.80
2019-06-01T01:25:37.226Z,22.13
2019-06-01T01:28:06.320Z,21.12
2019-06-01T01:30:35.047Z,22.30
2019-06-01T01:33:03.781Z,20.45
2019-06-01T01:35:32.500Z,21.65
2019-06-01T01:38:01.241Z,21.65
2019-06-01T01:40:29.955Z,20.30
2019-06-01T01:42:59.004Z,21.15
2019-06-01T01:45:27.810Z,21.02
2019-06-01T01:47:57.171Z,18.57
2019-06-01T01:50:27.398Z,19.55
2019-06-01T01:52:57.079Z,19.20
2019-06-01T01:55:26.057Z,17.60
2019-06-01T01:57:55.410Z,16.77
2019-06-01T02:00:54.633Z,15.75
2019-06-01T02:03:24.228Z,17.80
2019-06-01T02:05:53.045Z,17.12
2019-06-01T02:08:21.776Z,17.42
2019-06-01T02:10:51.191Z,15.38
2019-06-01T02:13:20.048Z,14.50
2019-06-01T02:15:48.787Z,14.43
2019-06-01T02:18:17.514Z,14.58
2019-06-01T02:20:46.235Z,14.25
2019-06-01T02:23:14.959Z,13.22
2019-06-01T02:25:43.679Z,13.25
2019-06-01T02:28:12.408Z,12.98
2019-06-01T02:30:41.126Z,13.55
2019-06-01T02:33:09.847Z,12.30
2019-06-01T02:35:38.568Z,12.37
2019-06-01T02:38:07.306Z,12.23
2019-06-01T02:40:36.229Z,12.50
2019-06-01T02:43:06.865Z,12.73
2019-06-01T02:45:35.712Z,13.32
2019-06-01T02:48:06.399Z,11.73
2019-06-01T02:50:35.392Z,12.10
2019-06-01T02:53:04.215Z,11.45
2019-06-01T02:55:32.944Z,12.00
2019-06-01T02:58:02.363Z,10.15
2019-06-01T03:00:49.192Z,10.45
2019-06-01T03:03:18.086Z,10.93
2019-06-01T03:05:48.146Z,11.53
2019-06-01T03:08:18.877Z,11.75
2019-06-01T03:10:50.303Z,12.53
2019-06-01T03:13:21.578Z,11.10
2019-06-01T03:15:53.315Z,11.48
2019-06-01T03:18:23.583Z,10.45
2019-06-01T03:20:54.175Z,10.05
2019-06-01T03:23:24.363Z,11.12
2019-06-01T03:25:54.570Z,11.50
2019-06-01T03:28:24.971Z,9.95
2019-06-01T03:30:53.727Z,10.98
2019-06-01T03:33:22.455Z,9.50
2019-06-01T03:35:51.225Z,11.00
2019-06-01T03:38:20.098Z,10.18
2019-06-01T03:40:48.850Z,10.88
2019-06-01T03:43:18.372Z,9.73
2019-06-01T03:45:47.264Z,9.58
2019-06-01T03:48:16.065Z,9.68
2019-06-01T03:50:44.859Z,9.00
2019-06-01T03:53:13.592Z,8.98
2019-06-01T03:55:42.301Z,8.78
2019-06-01T03:58:11.218Z,8.53
2019-06-01T04:00:40.089Z,6.83
2019-06-01T04:03:09.197Z,5.90
2019-06-01T04:05:38.108Z,6.92
2019-06-01T04:08:07.541Z,7.67
2019-06-01T04:10:36.454Z,6.92
2019-06-01T04:13:07.350Z,7.97
2019-06-01T04:15:36.320Z,8.03
2019-06-01T04:18:06.019Z,6.97
2019-06-01T04:20:34.946Z,12.68
2019-06-01T04:23:04.595Z,8.08
2019-06-01T04:25:33.517Z,6.17
2019-06-01T04:28:02.287Z,6.03
2019-06-01T04:30:31.439Z,4.97
2019-06-01T04:33:00.167Z,4.67
2019-06-01T04:35:28.900Z,4.90
2019-06-01T04:37:57.636Z,4.65
2019-06-01T04:40:26.443Z,4.62
2019-06-01T04:42:55.192Z,4.05
2019-06-01T04:45:23.931Z,4.75
2019-06-01T04:47:52.722Z,5.20
2019-06-01T04:50:21.488Z,4.30
2019-06-01T04:52:50.217Z,3.87
2019-06-01T04:55:19.007Z,3.70
2019-06-01T04:57:47.799Z,3.37
2019-06-01T05:00:26.031Z,4.03
2019-06-01T05:02:46.927Z,3.70
2019-06-01T05:05:15.764Z,2.98
2019-06-01T05:07:44.498Z,3.05
2019-06-01T05:10:14.267Z,3.00
2019-06-01T05:12:43.955Z,2.58
2019-06-01T05:15:14.287Z,2.80
2019-06-01T05:17:43.023Z,2.70
2019-06-01T05:20:14.584Z,3.10
2019-06-01T05:22:43.484Z,2.50
2019-06-01T05:25:13.502Z,2.77
2019-06-01T05:27:42.375Z,2.52
2019-06-01T05:30:11.619Z,2.27
2019-06-01T05:32:40.362Z,2.10
2019-06-01T05:35:09.643Z,2.42
2019-06-01T05:37:38.391Z,1.98
2019-06-01T05:40:10.745Z,2.05
2019-06-01T05:42:39.458Z,2.52
2019-06-01T05:45:09.314Z,2.42
2019-06-01T05:47:38.181Z,2.10
2019-06-01T05:50:08.050Z,2.50
2019-06-01T05:52:36.977Z,3.42
2019-06-01T05:55:07.307Z,2.37
2019-06-01T05:57:35.992Z,3.60
2019-06-01T06:00:09.394Z,2.10
2019-06-01T06:02:38.719Z,2.70
2019-06-01T06:05:10.491Z,2.87
2019-06-01T06:07:39.483Z,2.22
2019-06-01T06:10:13.781Z,2.40
2019-06-01T06:12:42.596Z,2.05
2019-06-01T06:15:13.524Z,2.05
2019-06-01T06:17:43.041Z,2.20
2019-06-01T06:20:12.299Z,2.08
2019-06-01T06:22:41.974Z,2.60
2019-06-01T06:25:10.886Z,3.00
2019-06-01T06:27:39.931Z,2.65
2019-06-01T06:30:09.019Z,2.90
2019-06-01T06:32:37.836Z,2.72
2019-06-01T06:35:06.804Z,2.67
2019-06-01T06:37:35.802Z,2.80
2019-06-01T06:40:07.735Z,2.60
2019-06-01T06:42:36.671Z,2.10
2019-06-01T06:45:06.696Z,19.35
2019-06-01T06:47:36.990Z,2.25
2019-06-01T06:50:07.295Z,2.47
2019-06-01T06:52:36.120Z,2.08
2019-06-01T06:55:07.371Z,2.30
2019-06-01T06:57:36.466Z,2.00
2019-06-01T07:00:08.781Z,2.30
2019-06-01T07:02:37.533Z,2.10
2019-06-01T07:05:07.744Z,2.08
2019-06-01T07:07:36.459Z,2.05
2019-06-01T07:10:06.895Z,2.55
2019-06-01T07:12:36.153Z,2.25
2019-06-01T07:15:06.268Z,1.95
2019-06-01T07:17:35.275Z,3.80
2019-06-01T07:20:05.603Z,3.33
2019-06-01T07:22:34.339Z,2.47
2019-06-01T07:25:05.234Z,2.90
2019-06-01T07:27:35.435Z,3.10
2019-06-01T07:30:05.935Z,2.95
2019-06-01T07:32:34.660Z,3.65
2019-06-01T07:35:04.846Z,3.90
2019-06-01T07:37:33.905Z,3.52
2019-06-01T07:40:02.819Z,3.60
2019-06-01T07:42:33.068Z,2.70
2019-06-01T07:45:02.903Z,2.70
2019-06-01T07:47:31.620Z,2.72
2019-06-01T07:50:00.422Z,2.80
2019-06-01T07:52:30.282Z,2.85
2019-06-01T07:55:00.416Z,3.00
2019-06-01T07:57:29.901Z,2.85
2019-06-01T07:59:58.944Z,3.08
2019-06-01T08:02:29.459Z,3.65
2019-06-01T08:04:58.521Z,2.95
2019-06-01T08:07:27.693Z,3.25
2019-06-01T08:09:56.622Z,3.08
2019-06-01T08:12:25.974Z,5.10
2019-06-01T08:14:54.870Z,3.50
2019-06-01T08:17:24.091Z,2.92
2019-06-01T08:19:53.025Z,3.50
2019-06-01T08:22:22.017Z,3.10
2019-06-01T08:24:51.245Z,3.20
2019-06-01T08:27:22.288Z,2.80
2019-06-01T08:29:51.445Z,2.95
2019-06-01T08:32:20.492Z,2.47
2019-06-01T08:34:49.332Z,2.72
2019-06-01T08:37:18.473Z,3.52
2019-06-01T08:39:47.425Z,3.33
2019-06-01T08:42:16.227Z,3.27
2019-06-01T08:44:46.595Z,2.70
2019-06-01T08:47:18.266Z,3.00
2019-06-01T08:49:47.955Z,2.77
2019-06-01T08:52:16.961Z,2.90
2019-06-01T08:54:45.785Z,2.33
2019-06-01T08:57:14.676Z,2.90
2019-06-01T08:59:43.803Z,3.20
2019-06-01T09:02:12.663Z,2.77
2019-06-01T09:04:41.787Z,3.00
2019-06-01T09:07:10.623Z,2.70
2019-06-01T09:09:39.374Z,2.62
2019-06-01T09:12:08.086Z,2.83
2019-06-01T09:14:36.815Z,3.22
2019-06-01T09:17:05.539Z,3.83
2019-06-01T09:19:35.585Z,3.35
2019-06-01T09:22:04.428Z,2.75
2019-06-01T09:24:33.955Z,2.80
2019-06-01T09:27:02.857Z,2.40
2019-06-01T09:29:32.082Z,2.27
2019-06-01T09:32:00.898Z,3.20
2019-06-01T09:34:30.467Z,3.05
2019-06-01T09:36:59.309Z,2.27
2019-06-01T09:39:29.072Z,3.30
2019-06-01T09:41:57.971Z,2.30
2019-06-01T09:44:26.902Z,2.20
2019-06-01T09:46:55.698Z,3.40
2019-06-01T09:49:24.424Z,2.15
2019-06-01T09:51:53.187Z,2.40
2019-06-01T09:54:21.921Z,2.40
2019-06-01T09:56:50.657Z,3.00
2019-06-01T09:59:19.436Z,2.75
2019-06-01T10:01:48.211Z,2.50
2019-06-01T10:04:16.917Z,2.62
2019-06-01T10:06:45.668Z,2.20
2019-06-01T10:09:14.464Z,2.35
2019-06-01T10:11:43.207Z,3.40
2019-06-01T10:14:11.971Z,2.75
2019-06-01T10:16:40.810Z,3.45
2019-06-01T10:19:09.648Z,3.65
2019-06-01T10:21:38.528Z,2.52
2019-06-01T10:24:07.512Z,2.22
2019-06-01T10:26:37.899Z,2.20
2019-06-01T10:29:06.956Z,2.55
2019-06-01T10:31:39.702Z,2.30
2019-06-01T10:34:06.218Z,1.80
2019-06-01T10:36:35.951Z,2.22
2019-06-01T10:39:07.197Z,2.55
2019-06-01T10:41:35.951Z,2.10
2019-06-01T10:44:04.703Z,2.12
2019-06-01T10:46:33.805Z,2.00
2019-06-01T10:49:02.656Z,2.15
2019-06-01T10:51:32.038Z,1.92
2019-06-01T10:54:02.603Z,2.05
2019-06-01T10:56:32.288Z,1.95
2019-06-01T10:59:01.324Z,2.50
2019-06-01T11:01:32.399Z,1.90
2019-06-01T11:04:00.652Z,2.10
2019-06-01T11:06:40.212Z,2.00
2019-06-01T11:08:59.281Z,1.87
2019-06-01T11:11:28.001Z,1.65
2019-06-01T11:13:56.723Z,1.52
2019-06-01T11:16:25.481Z,1.80
2019-06-01T11:18:54.230Z,1.50
2019-06-01T11:21:22.960Z,1.80
2019-06-01T11:23:51.692Z,1.62
2019-06-01T11:26:20.486Z,1.80
2019-06-01T11:28:49.235Z,1.72
2019-06-01T11:31:18.003Z,1.82
2019-06-01T11:33:46.799Z,1.90
2019-06-01T11:36:15.627Z,1.80
2019-06-01T11:38:44.886Z,1.60
2019-06-01T11:41:15.999Z,2.60
2019-06-01T11:43:45.884Z,2.10
2019-06-01T11:46:15.179Z,1.87
2019-06-01T11:48:45.259Z,1.65
2019-06-01T11:51:14.133Z,2.33
2019-06-01T11:53:43.477Z,2.10
2019-06-01T11:56:12.333Z,1.65
2019-06-01T11:58:41.414Z,1.70
2019-06-01T12:01:10.188Z,1.85
2019-06-01T12:03:39.689Z,1.90
2019-06-01T12:06:08.557Z,1.90
2019-06-01T12:08:38.045Z,1.95
2019-06-01T12:11:06.976Z,1.92
2019-06-01T12:13:36.032Z,1.90
2019-06-01T12:16:08.045Z,1.80
2019-06-01T12:18:36.711Z,2.05
2019-06-01T12:21:05.456Z,2.10
2019-06-01T12:23:34.194Z,1.67
2019-06-01T12:26:02.916Z,1.87
2019-06-01T12:28:31.653Z,1.77
2019-06-01T12:31:00.367Z,1.55
2019-06-01T12:33:29.101Z,1.60
2019-06-01T12:35:57.827Z,1.92
2019-06-01T12:38:26.618Z,1.92
2019-06-01T12:40:55.361Z,2.25
2019-06-01T12:43:24.091Z,1.95
2019-06-01T12:46:06.565Z,2.10
2019-06-01T12:48:23.210Z,1.70
2019-06-01T12:50:52.612Z,2.40
2019-06-01T12:53:21.379Z,1.70
2019-06-01T12:55:50.109Z,1.98
2019-06-01T12:58:18.856Z,1.98
2019-06-01T13:00:48.426Z,1.80
2019-06-01T13:03:17.208Z,2.67
2019-06-01T13:05:45.943Z,2.12
2019-06-01T13:08:14.660Z,1.80
2019-06-01T13:10:43.403Z,1.92
2019-06-01T13:13:12.136Z,1.98
2019-06-01T13:15:41.185Z,2.05
2019-06-01T13:18:10.019Z,2.00
2019-06-01T13:20:38.740Z,2.00
2019-06-01T13:23:07.452Z,2.20
2019-06-01T13:25:36.177Z,2.20
2019-06-01T13:28:05.001Z,2.50
2019-06-01T13:30:33.753Z,2.05
2019-06-01T13:33:02.458Z,2.30
2019-06-01T13:35:31.208Z,3.45
2019-06-01T13:38:11.951Z,3.58
2019-06-01T13:40:30.359Z,2.83
2019-06-01T13:42:59.119Z,2.98
2019-06-01T13:45:27.842Z,2.85
2019-06-01T13:47:56.733Z,2.65
2019-06-01T13:50:27.090Z,2.98
2019-06-01T13:52:55.823Z,3.85
2019-06-01T13:55:24.543Z,3.20
2019-06-01T13:57:54.451Z,4.08
2019-06-01T14:00:30.217Z,3.80
2019-06-01T14:02:57.162Z,3.15
2019-06-01T14:05:24.465Z,4.15
2019-06-01T14:07:53.571Z,3.83
2019-06-01T14:10:22.336Z,3.47
2019-06-01T14:12:51.418Z,3.22
2019-06-01T14:15:20.634Z,3.90
2019-06-01T14:17:50.267Z,3.42
2019-06-01T14:20:19.416Z,3.08
2019-06-01T14:22:48.132Z,3.47
2019-06-01T14:25:16.920Z,5.35
2019-06-01T14:27:46.145Z,5.67
2019-06-01T14:30:15.352Z,3.30
2019-06-01T14:32:44.415Z,4.30
2019-06-01T14:35:13.543Z,4.30
2019-06-01T14:37:42.365Z,3.37
2019-06-01T14:40:11.728Z,2.85
2019-06-01T14:42:40.607Z,3.33
2019-06-01T14:45:09.775Z,3.72
2019-06-01T14:47:38.522Z,2.83
2019-06-01T14:50:07.937Z,1.47
2019-06-01T14:52:36.670Z,1.52
2019-06-01T14:55:08.720Z,2.70
2019-06-01T14:57:37.490Z,1.82
2019-06-01T15:00:08.731Z,1.52
2019-06-01T15:02:37.473Z,1.52
2019-06-01T15:05:07.757Z,1.65
2019-06-01T15:07:36.490Z,1.87
2019-06-01T15:10:09.565Z,1.50
2019-06-01T15:12:38.310Z,1.52
2019-06-01T15:15:10.462Z,1.62
2019-06-01T15:17:40.102Z,1.60
2019-06-01T15:20:09.900Z,1.85
2019-06-01T15:22:38.624Z,1.67
2019-06-01T15:25:09.625Z,2.00
2019-06-01T15:27:38.544Z,2.22
2019-06-01T15:30:09.166Z,2.52
2019-06-01T15:32:37.868Z,1.95
2019-06-01T15:35:08.452Z,1.80
2019-06-01T15:37:37.232Z,1.72
2019-06-01T15:40:10.722Z,2.17
2019-06-01T15:42:39.473Z,1.50
2019-06-01T15:45:09.199Z,1.80
2019-06-01T15:47:38.020Z,1.50
2019-06-01T15:50:08.044Z,1.52
2019-06-01T15:52:36.924Z,1.90
2019-06-01T15:55:06.941Z,1.85
2019-06-01T15:57:35.702Z,1.70
2019-06-01T16:00:07.428Z,2.00
2019-06-01T16:02:36.194Z,1.92
2019-06-01T16:05:06.836Z,1.70
2019-06-01T16:07:35.551Z,2.05
2019-06-01T16:10:08.479Z,1.70
2019-06-01T16:12:37.738Z,1.90
2019-06-01T16:15:08.289Z,1.80
2019-06-01T16:17:38.740Z,1.30
2019-06-01T16:20:10.151Z,1.80
2019-06-01T16:22:39.209Z,1.72
2019-06-01T16:25:09.116Z,2.58
2019-06-01T16:27:38.008Z,2.08
2019-06-01T16:30:08.466Z,2.08
2019-06-01T16:32:39.689Z,2.02
2019-06-01T16:35:09.258Z,2.00
2019-06-01T16:37:38.404Z,1.90
2019-06-01T16:40:10.378Z,1.65
2019-06-01T16:42:38.791Z,2.17
2019-06-01T16:45:08.153Z,2.40
2019-06-01T16:47:37.481Z,2.50
2019-06-01T16:50:10.415Z,1.95
2019-06-01T16:52:40.220Z,1.90
2019-06-01T16:55:10.656Z,1.60
2019-06-01T16:57:39.828Z,3.65
2019-06-01T17:00:11.872Z,2.08
2019-06-01T17:02:40.781Z,3.08
2019-06-01T17:05:10.493Z,1.80
2019-06-01T17:07:39.216Z,2.22
2019-06-01T17:10:25.096Z,3.37
2019-06-01T17:12:42.975Z,1.67
2019-06-01T17:15:09.911Z,1.95
2019-06-01T17:17:38.700Z,2.02
2019-06-01T17:20:09.280Z,2.22
2019-06-01T17:22:38.057Z,4.35
2019-06-01T17:25:07.946Z,5.47
2019-06-01T17:27:36.710Z,1.95
2019-06-01T17:30:09.913Z,1.82
2019-06-01T17:32:36.592Z,1.57
2019-06-01T17:35:07.048Z,1.80
2019-06-01T17:37:35.906Z,1.92
2019-06-01T17:40:08.311Z,3.75
2019-06-01T17:42:37.356Z,1.70
2019-06-01T17:45:08.244Z,2.25
2019-06-01T17:47:40.859Z,1.70
2019-06-01T17:50:09.740Z,1.55
2019-06-01T17:52:38.523Z,2.22
2019-06-01T17:55:07.369Z,2.20
2019-06-01T17:57:36.087Z,1.80
2019-06-01T18:00:09.695Z,1.90
2019-06-01T18:02:38.414Z,1.87
2019-06-01T18:05:08.252Z,2.55
2019-06-01T18:07:37.148Z,2.22
2019-06-01T18:10:08.261Z,1.98
2019-06-01T18:12:37.195Z,1.80
2019-06-01T18:15:10.183Z,1.60
2019-06-01T18:17:38.999Z,1.30
2019-06-01T18:20:08.854Z,1.35
2019-06-01T18:22:38.421Z,1.50
2019-06-01T18:25:08.548Z,3.55
2019-06-01T18:27:37.567Z,3.30
2019-06-01T18:30:12.782Z,2.45
2019-06-01T18:32:42.111Z,3.37
2019-06-01T18:35:13.358Z,2.02
2019-06-01T18:37:42.364Z,1.95
2019-06-01T18:40:11.874Z,1.62
2019-06-01T18:42:41.914Z,2.25
2019-06-01T18:45:11.828Z,6.30
2019-06-01T18:47:40.495Z,1.72
2019-06-01T18:50:10.020Z,2.08
2019-06-01T18:52:40.084Z,2.25
2019-06-01T18:55:10.591Z,2.20
2019-06-01T18:57:41.596Z,1.17
2019-06-01T19:00:13.574Z,1.25
2019-06-01T19:02:42.545Z,1.70
2019-06-01T19:05:11.642Z,1.40
2019-06-01T19:07:40.678Z,1.47
2019-06-01T19:10:12.413Z,1.40
2019-06-01T19:12:41.207Z,1.30
2019-06-01T19:15:23.591Z,1.80
2019-06-01T19:17:40.727Z,1.30
2019-06-01T19:20:12.760Z,2.12
2019-06-01T19:22:41.819Z,1.80
2019-06-01T19:25:11.376Z,1.30
2019-06-01T19:27:40.919Z,1.20
2019-06-01T19:30:10.863Z,1.25
2019-06-01T19:32:40.268Z,1.00
2019-06-01T19:35:09.595Z,1.50
2019-06-01T19:37:40.529Z,2.08
2019-06-01T19:40:11.351Z,1.30
2019-06-01T19:42:40.295Z,1.50
2019-06-01T19:45:18.525Z,1.27
2019-06-01T19:47:40.377Z,1.37
2019-06-01T19:50:10.212Z,1.30
2019-06-01T19:52:39.008Z,1.60
2019-06-01T19:55:08.977Z,1.37
2019-06-01T19:57:37.855Z,1.30
2019-06-01T20:00:07.654Z,1.77
2019-06-01T20:02:36.392Z,1.30
2019-06-01T20:05:06.111Z,1.52
2019-06-01T20:07:34.865Z,1.20
2019-06-01T20:10:05.356Z,1.65
2019-06-01T20:12:34.079Z,1.50
2019-06-01T20:15:02.797Z,1.22
2019-06-01T20:17:31.537Z,1.42
2019-06-01T20:20:00.256Z,1.65
2019-06-01T20:22:28.976Z,1.60
2019-06-01T20:24:57.770Z,1.60
2019-06-01T20:27:26.492Z,1.55
2019-06-01T20:29:55.235Z,1.32
2019-06-01T20:32:23.978Z,1.45
2019-06-01T20:34:52.686Z,1.80
2019-06-01T20:37:22.219Z,1.50
2019-06-01T20:39:51.064Z,1.80
2019-06-01T20:42:27.814Z,1.47
2019-06-01T20:44:50.219Z,1.35
2019-06-01T20:47:19.050Z,1.32
2019-06-01T20:49:48.554Z,1.45
2019-06-01T20:52:17.362Z,1.55
2019-06-01T20:54:46.103Z,1.32
2019-06-01T20:57:15.291Z,1.20
2019-06-01T20:59:44.169Z,1.30
2019-06-01T21:02:13.753Z,2.45
2019-06-01T21:04:42.529Z,1.37
2019-06-01T21:07:11.302Z,2.02
2019-06-01T21:09:39.988Z,1.40
2019-06-01T21:12:08.706Z,1.70
2019-06-01T21:14:37.418Z,1.50
2019-06-01T21:17:06.226Z,1.67
2019-06-01T21:19:34.938Z,1.60
2019-06-01T21:22:03.658Z,1.90
2019-06-01T21:24:32.389Z,1.98
2019-06-01T21:27:01.151Z,1.72
2019-06-01T21:29:29.828Z,2.25
2019-06-01T21:31:58.546Z,1.75
2019-06-01T21:34:27.296Z,1.55
2019-06-01T21:36:56.015Z,1.87
2019-06-01T21:39:25.552Z,1.70
2019-06-01T21:41:54.351Z,1.90
2019-06-01T21:44:23.733Z,2.10
2019-06-01T21:46:52.523Z,2.72
2019-06-01T21:49:22.149Z,1.82
2019-06-01T21:51:53.066Z,2.20
2019-06-01T21:54:22.244Z,2.27
2019-06-01T21:56:51.024Z,2.02
2019-06-01T21:59:20.586Z,2.12
2019-06-01T22:01:49.359Z,2.12
2019-06-01T22:04:18.750Z,3.35
2019-06-01T22:06:47.588Z,2.30
2019-06-01T22:09:17.175Z,2.33
2019-06-01T22:11:46.017Z,2.10
2019-06-01T22:14:14.778Z,2.10
2019-06-01T22:16:43.499Z,2.52
2019-06-01T22:19:12.229Z,2.70
2019-06-01T22:21:40.949Z,3.22
2019-06-01T22:24:09.752Z,3.12
2019-06-01T22:26:38.463Z,2.80
2019-06-01T22:29:07.252Z,3.15
2019-06-01T22:31:35.971Z,5.08
2019-06-01T22:34:05.044Z,3.30
2019-06-01T22:36:33.764Z,4.33
2019-06-01T22:39:02.604Z,4.05
2019-06-01T22:41:32.319Z,3.20
2019-06-01T22:44:01.172Z,3.50
2019-06-01T22:46:29.886Z,3.33
2019-06-01T22:48:58.617Z,3.50
2019-06-01T22:51:27.382Z,3.70
2019-06-01T22:53:56.128Z,3.20
2019-06-01T22:56:25.236Z,3.50
2019-06-01T22:58:54.008Z,3.40
2019-06-01T23:01:22.958Z,3.10
2019-06-01T23:03:51.648Z,3.80
2019-06-01T23:06:20.933Z,3.37
2019-06-01T23:08:49.698Z,3.25
2019-06-01T23:11:18.415Z,4.00
2019-06-01T23:13:53.285Z,3.75
2019-06-01T23:16:17.514Z,3.50
2019-06-01T23:18:46.227Z,3.60
2019-06-01T23:21:15.025Z,4.37
2019-06-01T23:23:43.738Z,3.65
2019-06-01T23:26:12.467Z,3.90
2019-06-01T23:28:41.193Z,3.72
2019-06-01T23:31:09.930Z,3.92
2019-06-01T23:33:38.655Z,4.50
2019-06-01T23:36:07.368Z,4.72
2019-06-01T23:38:36.121Z,4.58
2019-06-01T23:41:05.059Z,4.33
2019-06-01T23:43:33.776Z,4.67
2019-06-01T23:46:02.488Z,5.12
2019-06-01T23:48:31.354Z,4.30
2019-06-01T23:51:00.092Z,4.53
2019-06-01T23:53:29.560Z,5.10
2019-06-01T23:55:58.358Z,4.85
2019-06-01T23:58:28.038Z,4.70
